Time;durP1;ratioP1;P1;durP2;ratioP2;P2;SDS_P1;SDS_P2;PMS_P1;PMS_P2;Temp;Humidity;BMP_temperature;BMP_pressure;BME280_temperature;BME280_humidity;BME280_pressure;Samples;Min_cycle;Max_cycle;Signal;HPM_P1;HPM_P2
2023/08/24 00:01:14;;;;;;;39.63;5.80;;;17.90;1.00;;;;;;5030423;28;20413;-78
2023/08/24 00:03:40;;;;;;;38.13;5.70;;;17.90;1.00;;;;;;5026150;28;20435;-78
2023/08/24 00:06:06;;;;;;;42.20;5.90;;;17.90;1.00;;;;;;5025065;28;20427;-78
2023/08/24 00:08:32;;;;;;;38.67;5.70;;;17.90;1.00;;;;;;5017752;28;20914;-80
2023/08/24 00:10:58;;;;;;;40.20;6.00;;;17.80;1.00;;;;;;5023647;28;20437;-81
2023/08/24 00:13:25;;;;;;;46.67;6.47;;;17.80;1.00;;;;;;5032177;28;20469;-80
2023/08/24 00:15:51;;;;;;;41.97;6.13;;;17.80;1.00;;;;;;5016700;28;20419;-80
2023/08/24 00:18:19;;;;;;;38.87;6.30;;;17.70;1.00;;;;;;5026076;28;21026;-81
2023/08/24 00:20:44;;;;;;;40.80;6.20;;;17.70;1.00;;;;;;5032360;28;20410;-81
2023/08/24 00:23:10;;;;;;;42.93;6.70;;;17.70;1.00;;;;;;5031842;28;20421;-80
2023/08/24 00:25:36;;;;;;;43.17;6.70;;;17.70;1.00;;;;;;5017328;28;20259;-78
2023/08/24 00:28:02;;;;;;;39.00;6.67;;;17.70;1.00;;;;;;5041122;28;20183;-78
2023/08/24 00:30:33;;;;;;;45.70;6.83;;;18.30;1.00;;;;;;5025741;28;20163;-78
2023/08/24 00:33:03;;;;;;;39.97;6.83;;;17.60;1.00;;;;;;5019483;28;20401;-78
2023/08/24 00:35:32;;;;;;;39.20;6.87;;;17.60;1.00;;;;;;5032262;28;20398;-77
2023/08/24 00:38:15;;;;;;;51.53;7.70;;;17.60;1.00;;;;;;5032689;28;20406;-79
2023/08/24 00:40:58;;;;;;;46.33;6.80;;;17.60;1.00;;;;;;5028004;28;20428;-80
2023/08/24 00:43:25;;;;;;;46.10;7.77;;;17.60;1.00;;;;;;5028017;28;20427;-81
2023/08/24 00:45:52;;;;;;;43.60;7.57;;;17.60;1.00;;;;;;5026023;28;20868;-80
2023/08/24 00:48:38;;;;;;;44.63;7.10;;;17.60;1.00;;;;;;5030298;28;21022;-80
2023/08/24 00:51:08;;;;;;;52.00;7.63;;;17.60;1.00;;;;;;5022789;28;21015;-80
2023/08/24 00:53:38;;;;;;;40.27;6.97;;;17.60;1.00;;;;;;5036039;28;20458;-79
2023/08/24 00:56:26;;;;;;;40.20;7.33;;;17.60;1.00;;;;;;5036043;28;20876;-80
2023/08/24 00:58:57;;;;;;;50.97;7.10;;;17.60;1.00;;;;;;5036381;28;20391;-80
2023/08/24 01:01:41;;;;;;;47.07;7.90;;;17.60;1.00;;;;;;5031482;28;20471;-80
2023/08/24 01:04:15;;;;;;;47.73;7.97;;;17.60;1.00;;;;;;5021722;28;20538;-80
2023/08/24 01:06:40;;;;;;;42.80;8.13;;;17.60;1.00;;;;;;5016780;28;20903;-80
2023/08/24 01:09:07;;;;;;;44.20;8.73;;;17.50;1.00;;;;;;5022263;28;20442;-81
2023/08/24 01:12:00;;;;;;;42.23;8.10;;;17.50;1.00;;;;;;5021237;28;20202;-81
2023/08/24 01:14:57;;;;;;;47.70;8.57;;;17.50;1.00;;;;;;5015642;28;20513;-81
2023/08/24 01:17:27;;;;;;;54.57;8.70;;;17.50;1.00;;;;;;5007704;28;20419;-80
2023/08/24 01:19:58;;;;;;;45.40;8.60;;;17.50;1.00;;;;;;4998305;28;20434;-80
2023/08/24 01:23:03;;;;;;;46.13;9.17;;;17.50;1.00;;;;;;5001332;28;20449;-80
2023/08/24 01:25:51;;;;;;;43.60;9.00;;;17.50;1.00;;;;;;5002349;28;20475;-80
2023/08/24 01:28:21;;;;;;;45.60;8.57;;;17.40;1.00;;;;;;5013741;28;20445;-80
2023/08/24 01:30:48;;;;;;;45.57;8.37;;;17.40;1.00;;;;;;4996904;28;20419;-80
2023/08/24 01:33:14;;;;;;;47.90;8.70;;;17.40;1.00;;;;;;5013844;28;20407;-80
2023/08/24 01:35:44;;;;;;;49.60;9.27;;;17.40;1.00;;;;;;5013034;28;20433;-80
2023/08/24 01:38:12;;;;;;;46.07;8.80;;;17.40;1.00;;;;;;4986075;28;20418;-80
2023/08/24 01:41:14;;;;;;;43.70;8.90;;;17.40;1.00;;;;;;5007047;28;20897;-78
2023/08/24 01:43:59;;;;;;;44.83;9.27;;;17.40;1.00;;;;;;4992437;28;20408;-78
2023/08/24 01:46:28;;;;;;;43.83;9.20;;;17.50;1.00;;;;;;5004914;28;21019;-78
2023/08/24 01:48:57;;;;;;;46.70;9.20;;;;;;;;;;5011273;28;20456;-78
2023/08/24 01:51:45;;;;;;;49.00;9.30;;;17.50;1.00;;;;;;4994655;28;20444;-78
2023/08/24 01:54:26;;;;;;;44.93;9.67;;;17.50;1.00;;;;;;5012762;28;21004;-79
2023/08/24 01:57:05;;;;;;;47.60;9.43;;;17.50;1.00;;;;;;5033359;28;20441;-78
2023/08/24 01:59:50;;;;;;;44.03;9.57;;;17.60;1.00;;;;;;5020931;28;20391;-78
2023/08/24 02:02:16;;;;;;;58.53;10.90;;;17.60;1.00;;;;;;5032749;28;20409;-78
2023/08/24 02:04:42;;;;;;;46.10;10.43;;;17.60;1.00;;;;;;5025264;28;20438;-78
2023/08/24 02:07:08;;;;;;;51.33;10.30;;;17.60;1.00;;;;;;5028546;28;20753;-78
2023/08/24 02:09:50;;;;;;;49.70;10.37;;;17.60;1.00;;;;;;5029085;28;20408;-80
2023/08/24 02:12:26;;;;;;;46.20;9.47;;;17.60;1.00;;;;;;5029904;28;20943;-80
2023/08/24 02:14:57;;;;;;;43.03;9.90;;;17.50;1.00;;;;;;5018409;28;20436;-80
2023/08/24 02:17:33;;;;;;;50.27;10.27;;;17.50;1.00;;;;;;5033206;28;20400;-80
2023/08/24 02:20:03;;;;;;;46.10;9.43;;;17.50;1.00;;;;;;5034015;28;20432;-80
2023/08/24 02:22:38;;;;;;;50.80;10.10;;;17.50;1.00;;;;;;5023325;28;20757;-80
2023/08/24 02:25:20;;;;;;;51.27;9.83;;;17.50;1.00;;;;;;5034342;28;20530;-81
2023/08/24 02:27:47;;;;;;;50.83;10.77;;;17.50;1.00;;;;;;5034349;28;20890;-81
2023/08/24 02:30:13;;;;;;;43.30;10.23;;;17.50;1.00;;;;;;5034207;28;20757;-80
2023/08/24 02:32:44;;;;;;;50.63;10.13;;;17.50;1.00;;;;;;5024676;28;20480;-80
2023/08/24 02:35:50;;;;;;;45.83;9.80;;;17.60;1.00;;;;;;5029975;28;20458;-80
2023/08/24 02:38:44;;;;;;;47.30;10.60;;;17.60;1.00;;;;;;5019137;28;20462;-80
2023/08/24 02:41:10;;;;;;;42.87;10.10;;;17.70;1.00;;;;;;5033626;28;20393;-78
2023/08/24 02:43:50;;;;;;;48.67;10.13;;;17.70;1.00;;;;;;5033628;28;20915;-78
2023/08/24 02:46:26;;;;;;;53.03;9.40;;;17.80;1.00;;;;;;5018072;28;20762;-78
2023/08/24 02:49:14;;;;;;;47.80;9.33;;;17.80;1.00;;;;;;5032884;28;20832;-78
2023/08/24 02:51:40;;;;;;;45.90;8.77;;;17.90;1.00;;;;;;5028438;28;20892;-78
2023/08/24 02:54:15;;;;;;;43.70;8.90;;;17.90;1.00;;;;;;5018509;28;20444;-79
2023/08/24 02:56:40;;;;;;;43.30;9.30;;;18.00;1.00;;;;;;5014938;28;20377;-79
2023/08/24 02:59:06;;;;;;;42.60;8.80;;;18.00;1.00;;;;;;5028098;28;20430;-78
2023/08/24 03:01:32;;;;;;;46.20;8.63;;;18.10;1.00;;;;;;5025283;28;20182;-78
2023/08/24 03:04:04;;;;;;;48.67;9.30;;;18.10;1.00;;;;;;5025802;28;20190;-78
2023/08/24 03:06:29;;;;;;;43.80;8.50;;;18.10;1.00;;;;;;5033926;28;20377;-78
2023/08/24 03:12:20;;;;;;;52.10;8.83;;;18.20;1.00;;;;;;5017236;28;20194;-78
2023/08/24 03:14:54;;;;;;;43.50;8.40;;;18.20;1.00;;;;;;5024232;28;21010;-78
2023/08/24 03:17:32;;;;;;;48.80;8.70;;;18.20;1.00;;;;;;5019417;28;20389;-78
2023/08/24 03:19:58;;;;;;;52.80;9.60;;;18.20;1.00;;;;;;5033049;28;20396;-78
2023/08/24 03:22:32;;;;;;;43.27;8.73;;;18.20;1.00;;;;;;5014072;28;20411;-78
2023/08/24 03:25:02;;;;;;;43.77;8.63;;;18.20;1.00;;;;;;5019161;28;20229;-78
2023/08/24 03:27:33;;;;;;;44.97;9.00;;;18.10;1.00;;;;;;5028293;28;20429;-80
2023/08/24 03:30:38;;;;;;;45.73;9.27;;;18.20;1.00;;;;;;5023942;28;20921;-80
2023/08/24 03:33:08;;;;;;;40.77;8.90;;;18.20;1.00;;;;;;5017736;28;20406;-80
2023/08/24 03:35:50;;;;;;;45.20;9.40;;;18.10;1.00;;;;;;5023493;28;20921;-80
2023/08/24 03:38:27;;;;;;;45.53;9.30;;;18.10;1.00;;;;;;5030936;28;20425;-80
2023/08/24 03:41:15;;;;;;;44.90;8.30;;;18.10;1.00;;;;;;5034041;28;20381;-80
2023/08/24 03:44:08;;;;;;;42.30;8.97;;;18.10;1.00;;;;;;5023006;28;20823;-80
2023/08/24 03:46:44;;;;;;;40.30;8.00;;;18.10;1.00;;;;;;5020773;28;20430;-80
2023/08/24 03:49:20;;;;;;;44.63;8.60;;;18.10;1.00;;;;;;5031148;28;20404;-80
2023/08/24 03:51:56;;;;;;;43.60;8.23;;;18.20;1.00;;;;;;5012622;28;20910;-80
2023/08/24 03:54:28;;;;;;;47.23;8.80;;;18.20;1.00;;;;;;5025806;28;20946;-79
2023/08/24 03:57:15;;;;;;;41.40;8.00;;;18.20;1.00;;;;;;5013975;28;20381;-80
2023/08/24 04:00:05;;;;;;;39.97;6.97;;;18.20;1.00;;;;;;5013754;28;20382;-80
2023/08/24 04:02:31;;;;;;;37.87;6.90;;;18.30;1.00;;;;;;5030137;28;20483;-80
2023/08/24 04:05:02;;;;;;;41.27;7.83;;;18.30;1.00;;;;;;5014712;28;20525;-80
2023/08/24 04:07:36;;;;;;;40.80;7.63;;;18.30;1.00;;;;;;5026667;28;20657;-81
2023/08/24 04:10:04;;;;;;;38.93;7.43;;;18.30;1.00;;;;;;5026536;28;20447;-80
2023/08/24 04:12:50;;;;;;;41.60;6.27;;;18.30;1.00;;;;;;5032421;28;20528;-80
2023/08/24 04:15:16;;;;;;;41.47;6.50;;;18.30;1.00;;;;;;5030917;28;20551;-80
2023/08/24 04:17:44;;;;;;;36.23;5.13;;;18.30;1.00;;;;;;5026081;28;20491;-81
2023/08/24 04:20:15;;;;;;;37.43;5.50;;;18.30;1.00;;;;;;5031273;28;20164;-80
2023/08/24 04:22:42;;;;;;;41.37;5.50;;;18.40;1.00;;;;;;5022888;28;20382;-80
2023/08/24 04:25:14;;;;;;;35.10;5.13;;;18.40;1.00;;;;;;5031177;28;20415;-80
2023/08/24 04:27:50;;;;;;;40.57;5.53;;;18.40;1.00;;;;;;5022079;28;20386;-81
2023/08/24 04:30:26;;;;;;;38.53;5.20;;;18.40;1.00;;;;;;5020064;28;20388;-82
2023/08/24 04:32:52;;;;;;;39.30;5.47;;;18.50;1.00;;;;;;5022895;28;20423;-81
2023/08/24 04:35:21;;;;;;;40.53;5.27;;;18.50;1.00;;;;;;5032566;28;20465;-81
2023/08/24 04:37:50;;;;;;;35.20;5.00;;;18.60;1.00;;;;;;5035461;28;20658;-80
2023/08/24 04:40:27;;;;;;;35.83;5.00;;;;;;;;;;5036213;28;20440;-81
2023/08/24 04:42:57;;;;;;;42.07;5.33;;;;;;;;;;5037748;28;20889;-86
2023/08/24 04:45:54;;;;;;;36.90;5.27;;;18.70;1.00;;;;;;5027819;28;20916;-85
2023/08/24 04:48:34;;;;;;;43.03;4.80;;;18.70;1.00;;;;;;5027290;28;20465;-85
2023/08/24 04:51:50;;;;;;;39.93;5.13;;;18.70;1.00;;;;;;5022243;28;20396;-85
2023/08/24 04:54:50;;;;;;;39.67;4.80;;;18.80;1.00;;;;;;5031892;28;20444;-85
2023/08/24 04:57:50;;;;;;;37.77;4.83;;;18.80;1.00;;;;;;5037409;28;20413;-85
2023/08/24 05:00:27;;;;;;;38.23;4.70;;;18.80;1.00;;;;;;5023131;28;20518;-84
2023/08/24 05:06:14;;;;;;;41.00;5.37;;;18.90;1.00;;;;;;5024545;28;20399;-85
2023/08/24 05:08:45;;;;;;;37.80;5.07;;;18.90;1.00;;;;;;5026911;28;20419;-85
2023/08/24 05:11:17;;;;;;;35.93;4.60;;;19.00;1.00;;;;;;5032366;28;20176;-85
2023/08/24 05:13:50;;;;;;;37.67;4.50;;;19.10;1.00;;;;;;5037082;28;20462;-85
2023/08/24 05:16:50;;;;;;;43.00;4.37;;;19.10;1.00;;;;;;5021571;28;20489;-85
2023/08/24 05:19:38;;;;;;;37.17;4.57;;;19.20;1.00;;;;;;5032284;28;20482;-84
2023/08/24 05:22:09;;;;;;;38.47;4.50;;;19.30;1.00;;;;;;5023375;28;20386;-85
2023/08/24 05:24:45;;;;;;;34.87;4.13;;;19.30;1.00;;;;;;5016043;28;20750;-85
2023/08/24 05:27:20;;;;;;;37.53;4.40;;;19.30;1.00;;;;;;5036011;28;20450;-85
2023/08/24 05:29:50;;;;;;;34.00;4.10;;;19.30;1.00;;;;;;5035910;28;20492;-85
2023/08/24 05:35:45;;;;;;;35.93;4.57;;;19.50;1.00;;;;;;5035576;28;20428;-84
2023/08/24 05:38:54;;;;;;;37.23;4.33;;;19.50;1.00;;;;;;5018302;28;20432;-85
2023/08/24 05:41:20;;;;;;;36.10;3.90;;;19.60;1.00;;;;;;5033321;28;20479;-84
2023/08/24 05:43:52;;;;;;;35.60;3.93;;;19.80;1.00;;;;;;5020924;28;20413;-84
2023/08/24 05:46:45;;;;;;;43.23;4.23;;;19.90;1.00;;;;;;5017762;28;20474;-83
2023/08/24 05:49:14;;;;;;;37.10;4.30;;;20.00;1.00;;;;;;5018453;28;20551;-83
2023/08/24 05:51:51;;;;;;;34.83;4.33;;;20.20;1.00;;;;;;5014610;28;20417;-84
2023/08/24 05:54:50;;;;;;;36.93;4.10;;;20.30;1.00;;;;;;5034881;28;20525;-86
2023/08/24 05:57:22;;;;;;;34.27;4.20;;;20.40;1.00;;;;;;5032265;28;20761;-83
2023/08/24 05:59:49;;;;;;;34.23;3.93;;;20.50;1.00;;;;;;5031982;28;20416;-85
2023/08/24 06:02:16;;;;;;;33.77;4.17;;;20.50;1.00;;;;;;5033189;28;20413;-85
2023/08/24 06:04:45;;;;;;;35.97;4.50;;;20.60;1.00;;;;;;5032977;28;20399;-85
2023/08/24 06:07:50;;;;;;;39.03;4.40;;;20.60;1.00;;;;;;5032432;28;20967;-85
2023/08/24 06:10:21;;;;;;;37.17;3.90;;;20.80;1.00;;;;;;5027937;28;20483;-85
2023/08/24 06:12:54;;;;;;;36.27;4.40;;;21.00;1.00;;;;;;5014713;28;20839;-81
2023/08/24 06:15:24;;;;;;;37.50;4.70;;;21.00;1.00;;;;;;5020986;28;20481;-81
2023/08/24 06:17:52;;;;;;;39.80;3.83;;;21.20;1.00;;;;;;5026216;28;20420;-81
2023/08/24 06:20:19;;;;;;;34.07;4.10;;;21.30;1.00;;;;;;5030743;28;20520;-81
2023/08/24 06:22:44;;;;;;;51.83;4.33;;;21.50;1.00;;;;;;5026982;28;20421;-81
2023/08/24 06:25:15;;;;;;;38.50;4.10;;;21.50;1.00;;;;;;5021505;28;20517;-81
2023/08/24 06:27:45;;;;;;;40.00;3.93;;;21.70;1.00;;;;;;5025074;28;20698;-84
2023/08/24 06:30:20;;;;;;;35.70;4.10;;;21.60;1.00;;;;;;5030891;28;20513;-84
2023/08/24 06:33:03;;;;;;;33.90;3.63;;;21.70;1.00;;;;;;5033317;28;20445;-84
2023/08/24 06:35:40;;;;;;;34.23;3.90;;;21.80;1.00;;;;;;5044526;28;20468;-84
2023/08/24 06:38:06;;;;;;;35.70;4.30;;;21.90;1.00;;;;;;5033872;28;20404;-84
2023/08/24 06:40:44;;;;;;;37.73;3.80;;;22.00;1.00;;;;;;5030780;28;20447;-85
2023/08/24 06:43:14;;;;;;;37.00;4.13;;;22.00;1.00;;;;;;5027105;28;20419;-83
2023/08/24 06:46:21;;;;;;;34.60;4.33;;;22.00;1.00;;;;;;5033436;28;20441;-85
2023/08/24 06:48:51;;;;;;;41.53;4.50;;;21.90;1.00;;;;;;5017594;28;20460;-84
2023/08/24 06:51:20;;;;;;;36.37;3.70;;;21.90;1.00;;;;;;5028911;28;20416;-85
2023/08/24 06:54:32;;;;;;;38.47;4.13;;;21.90;1.00;;;;;;5019393;28;20463;-85
2023/08/24 06:57:20;;;;;;;48.23;4.93;;;21.80;1.00;;;;;;5026474;28;20455;-84
2023/08/24 06:59:51;;;;;;;44.03;4.80;;;21.80;1.00;;;;;;5030069;28;20946;-85
2023/08/24 07:02:50;;;;;;;45.07;4.77;;;21.80;1.00;;;;;;5013626;28;20419;-84
2023/08/24 07:05:27;;;;;;;35.77;4.13;;;21.80;1.00;;;;;;5006894;28;20421;-83
2023/08/24 07:11:15;;;;;;;36.93;3.53;;;22.00;1.00;;;;;;5018846;28;20384;-85
2023/08/24 07:13:50;;;;;;;38.23;3.70;;;22.30;1.00;;;;;;5032859;28;20462;-84
2023/08/24 07:16:21;;;;;;;36.93;4.40;;;22.30;1.00;;;;;;5033400;28;20264;-84
2023/08/24 07:18:46;;;;;;;40.70;4.27;;;22.40;1.00;;;;;;5034172;28;20403;-84
2023/08/24 07:21:50;;;;;;;34.77;4.20;;;22.40;1.00;;;;;;5032795;28;20429;-84
2023/08/24 07:24:38;;;;;;;33.90;3.70;;;22.50;1.00;;;;;;5023579;28;20431;-84
2023/08/24 07:27:38;;;;;;;34.83;4.03;;;22.50;1.00;;;;;;5031245;28;20944;-84
2023/08/24 07:30:21;;;;;;;36.70;3.90;;;22.40;1.00;;;;;;5030659;28;20424;-81
2023/08/24 07:32:50;;;;;;;34.67;3.73;;;22.40;1.00;;;;;;5028953;28;20430;-80
2023/08/24 07:35:24;;;;;;;35.50;3.90;;;22.40;1.00;;;;;;5026055;28;20461;-81
2023/08/24 07:37:52;;;;;;;33.33;4.10;;;22.40;1.00;;;;;;5023833;28;21843;-81
2023/08/24 07:40:33;;;;;;;39.50;4.13;;;22.40;1.00;;;;;;5033135;28;20561;-80
2023/08/24 07:43:09;;;;;;;37.07;3.83;;;22.40;1.00;;;;;;5023046;28;20431;-81
2023/08/24 07:45:40;;;;;;;33.13;3.70;;;22.30;1.00;;;;;;5033139;28;20477;-80
2023/08/24 07:48:09;;;;;;;39.00;4.13;;;22.30;1.00;;;;;;5020986;28;20461;-81
2023/08/24 07:50:39;;;;;;;38.30;4.57;;;22.30;1.00;;;;;;5028226;28;20445;-81
2023/08/24 07:53:44;;;;;;;37.63;4.10;;;22.30;1.00;;;;;;5016338;28;20516;-81
2023/08/24 07:56:50;;;;;;;33.17;3.90;;;22.30;1.00;;;;;;5020295;28;20397;-81
2023/08/24 07:59:21;;;;;;;40.10;4.17;;;22.40;1.00;;;;;;5033501;28;20428;-84
2023/08/24 08:01:50;;;;;;;33.50;3.80;;;22.40;1.00;;;;;;5027678;28;20568;-84
2023/08/24 08:04:21;;;;;;;34.30;3.90;;;22.40;1.00;;;;;;5023063;28;20415;-84
2023/08/24 08:07:20;;;;;;;35.40;4.17;;;22.50;1.00;;;;;;5029850;28;20428;-84
2023/08/24 08:09:51;;;;;;;35.03;4.27;;;22.40;1.00;;;;;;5021506;28;20407;-84
2023/08/24 08:12:50;;;;;;;36.43;4.30;;;22.40;1.00;;;;;;5031777;28;20430;-84
2023/08/24 08:15:16;;;;;;;35.70;3.77;;;22.50;1.00;;;;;;5022074;28;20458;-84
2023/08/24 08:17:52;;;;;;;37.33;4.03;;;22.40;1.00;;;;;;5023875;28;20423;-84
2023/08/24 08:20:21;;;;;;;36.40;4.00;;;22.50;1.00;;;;;;5033112;28;20440;-84
2023/08/24 08:22:51;;;;;;;36.97;4.17;;;22.50;1.00;;;;;;5017553;28;20465;-84
2023/08/24 08:28:45;;;;;;;36.93;3.80;;;22.70;1.00;;;;;;5034093;28;20399;-84
2023/08/24 08:31:15;;;;;;;36.30;3.60;;;22.80;1.00;;;;;;5035674;28;20400;-81
2023/08/24 08:33:51;;;;;;;35.30;3.93;;;22.90;1.00;;;;;;5022168;28;20465;-81
2023/08/24 08:36:17;;;;;;;32.47;3.87;;;22.90;1.00;;;;;;5035094;28;20520;-80
2023/08/24 08:38:51;;;;;;;40.87;4.60;;;22.80;1.00;;;;;;5032521;28;20474;-81
2023/08/24 08:41:26;;;;;;;36.43;3.73;;;22.70;1.00;;;;;;5033991;28;20176;-81
2023/08/24 08:44:12;;;;;;;38.53;4.23;;;22.80;1.00;;;;;;5035052;28;20428;-81
2023/08/24 08:46:46;;;;;;;35.70;3.93;;;22.90;1.00;;;;;;5030917;28;21000;-83
2023/08/24 08:49:17;;;;;;;36.83;3.90;;;23.00;1.00;;;;;;5036915;28;20418;-84
2023/08/24 08:51:43;;;;;;;37.17;3.30;;;23.10;1.00;;;;;;5018006;28;20463;-84
2023/08/24 08:54:21;;;;;;;36.47;3.97;;;23.20;1.00;;;;;;5035791;28;20909;-84
2023/08/24 08:56:51;;;;;;;34.30;3.90;;;23.20;1.00;;;;;;5022510;28;20195;-84
2023/08/24 08:59:22;;;;;;;39.10;4.20;;;23.20;1.00;;;;;;5015844;28;20431;-84
2023/08/24 09:01:51;;;;;;;34.57;4.00;;;23.20;1.00;;;;;;5018057;28;20433;-81
2023/08/24 09:04:21;;;;;;;37.40;3.63;;;23.20;1.00;;;;;;5034735;28;20536;-81
2023/08/24 09:06:51;;;;;;;44.50;4.53;;;23.30;1.00;;;;;;5023900;28;20566;-81
2023/08/24 09:09:26;;;;;;;34.10;3.90;;;23.40;1.00;;;;;;5034791;28;20897;-81
2023/08/24 09:11:52;;;;;;;37.67;4.13;;;23.40;1.00;;;;;;5026771;28;20452;-81
2023/08/24 09:14:17;;;;;;;36.10;4.10;;;23.50;1.00;;;;;;5033145;28;20457;-81
2023/08/24 09:16:51;;;;;;;37.60;3.90;;;23.60;1.00;;;;;;5019625;28;20417;-81
2023/08/24 09:19:35;;;;;;;38.50;3.53;;;23.90;1.00;;;;;;5032848;28;20183;-81
2023/08/24 09:22:20;;;;;;;33.40;3.77;;;23.90;1.00;;;;;;5035761;28;20409;-81
2023/08/24 09:25:04;;;;;;;35.47;3.83;;;24.10;1.00;;;;;;5019471;28;20961;-81
2023/08/24 09:28:03;;;;;;;33.53;3.33;;;24.40;1.00;;;;;;5019772;28;20941;-81
2023/08/24 09:30:45;;;;;;;36.50;3.77;;;24.60;1.00;;;;;;5031251;28;20426;-82
2023/08/24 09:33:15;;;;;;;34.10;3.73;;;24.80;1.00;;;;;;5033024;28;20425;-80
2023/08/24 09:35:41;;;;;;;33.17;3.87;;;25.00;1.00;;;;;;5034677;28;20540;-81
2023/08/24 09:38:23;;;;;;;38.03;4.13;;;25.10;1.00;;;;;;5034974;28;20463;-80
2023/08/24 09:41:03;;;;;;;37.67;3.60;;;25.30;1.00;;;;;;5033984;28;20187;-81
2023/08/24 09:43:40;;;;;;;33.93;4.10;;;25.60;1.00;;;;;;5024664;28;20436;-80
2023/08/24 09:46:09;;;;;;;41.33;3.87;;;25.80;1.00;;;;;;5029448;28;20424;-82
2023/08/24 09:48:59;;;;;;;33.80;3.30;;;25.90;1.00;;;;;;5017531;28;20490;-84
2023/08/24 09:52:08;;;;;;;49.83;4.00;;;26.00;1.00;;;;;;5026547;28;20510;-84
2023/08/24 09:54:58;;;;;;;34.40;3.90;;;26.20;1.00;;;;;;5015307;28;20483;-83
2023/08/24 09:57:57;;;;;;;37.43;4.07;;;26.30;1.00;;;;;;5032815;28;20523;-83
2023/08/24 10:00:51;;;;;;;37.90;3.73;;;26.40;1.00;;;;;;5027217;28;20429;-83
2023/08/24 10:03:52;;;;;;;37.47;3.87;;;26.60;1.00;;;;;;5034200;28;20452;-83
2023/08/24 10:06:24;;;;;;;33.57;3.63;;;26.90;1.00;;;;;;5017800;28;20437;-83
2023/08/24 10:09:18;;;;;;;36.90;4.20;;;27.10;1.00;;;;;;5028156;28;20435;-83
2023/08/24 10:12:00;;;;;;;40.20;4.67;;;27.30;1.00;;;;;;5030153;28;20427;-83
2023/08/24 10:14:33;;;;;;;37.30;3.93;;;27.60;1.00;;;;;;5023172;28;20470;-83
2023/08/24 10:17:19;;;;;;;30.40;3.40;;;27.70;1.00;;;;;;5015068;28;20430;-81
2023/08/24 10:20:00;;;;;;;35.90;4.67;;;27.90;1.00;;;;;;5032878;28;20913;-80
2023/08/24 10:22:35;;;;;;;31.80;4.30;;;28.10;1.00;;;;;;5034808;28;20416;-80
2023/08/24 10:25:17;;;;;;;36.83;4.13;;;28.30;1.00;;;;;;5026898;28;20438;-81
2023/08/24 10:28:16;;;;;;;38.20;3.87;;;28.40;1.00;;;;;;5020841;28;20437;-80
2023/08/24 10:30:52;;;;;;;32.10;4.07;;;28.70;1.00;;;;;;5028342;28;20418;-83
2023/08/24 10:33:19;;;;;;;33.60;4.00;;;28.80;1.00;;;;;;5031621;28;20430;-83
2023/08/24 10:36:14;;;;;;;28.70;3.23;;;29.00;1.00;;;;;;5021853;28;20969;-83
2023/08/24 10:39:09;;;;;;;32.73;3.73;;;29.30;1.00;;;;;;5028341;28;20423;-83
2023/08/24 10:42:02;;;;;;;32.93;4.33;;;29.40;1.00;;;;;;5014820;28;20405;-83
2023/08/24 10:44:43;;;;;;;31.17;3.50;;;29.50;1.00;;;;;;5027254;28;20443;-82
2023/08/24 10:47:43;;;;;;;32.43;3.97;;;29.70;1.00;;;;;;5027208;28;20448;-83
2023/08/24 10:50:09;;;;;;;31.63;3.80;;;29.90;1.00;;;;;;5030630;28;20439;-82
2023/08/24 10:52:56;;;;;;;29.27;3.53;;;30.10;1.00;;;;;;5030935;28;20882;-83
2023/08/24 10:55:25;;;;;;;30.00;3.80;;;30.20;1.00;;;;;;5027448;28;20487;-83
2023/08/24 11:01:22;;;;;;;32.30;4.17;;;30.80;1.00;;;;;;5033512;28;20777;-83
2023/08/24 11:03:57;;;;;;;28.47;3.50;;;31.00;1.00;;;;;;5026159;28;20437;-81
2023/08/24 11:06:52;;;;;;;31.10;3.87;;;31.30;1.00;;;;;;5022269;28;20443;-80
2023/08/24 11:09:22;;;;;;;29.00;3.50;;;31.70;1.00;;;;;;5027372;28;20754;-81
2023/08/24 11:12:21;;;;;;;32.93;3.93;;;31.80;1.00;;;;;;5026287;28;20446;-80
2023/08/24 11:15:01;;;;;;;28.30;3.30;;;31.90;1.00;;;;;;5018663;28;20458;-81
2023/08/24 11:17:33;;;;;;;28.33;3.50;;;32.00;1.00;;;;;;5033373;28;20418;-83
2023/08/24 11:20:15;;;;;;;29.93;3.70;;;32.00;1.00;;;;;;5015694;28;20409;-83
2023/08/24 11:22:55;;;;;;;27.30;3.37;;;32.00;1.00;;;;;;5027865;28;20424;-83
2023/08/24 11:25:39;;;;;;;28.60;3.50;;;32.20;1.00;;;;;;5033772;28;20414;-83
2023/08/24 11:28:05;;;;;;;32.73;3.80;;;32.30;1.00;;;;;;5033627;28;20410;-83
2023/08/24 11:30:51;;;;;;;30.50;3.50;;;32.50;1.00;;;;;;5017719;28;20424;-83
2023/08/24 11:33:35;;;;;;;32.13;3.43;;;32.60;1.00;;;;;;5024776;28;20529;-81
2023/08/24 11:36:09;;;;;;;28.17;3.47;;;32.80;1.00;;;;;;5029851;28;20783;-81
2023/08/24 11:38:57;;;;;;;28.27;3.40;;;32.80;1.00;;;;;;5033031;28;20493;-80
2023/08/24 11:41:39;;;;;;;27.67;3.50;;;32.70;1.00;;;;;;5013933;28;20512;-80
2023/08/24 11:44:59;;;;;;;30.50;3.60;;;32.50;1.00;;;;;;5027381;28;20448;-80
2023/08/24 11:47:28;;;;;;;32.90;3.50;;;32.50;1.00;;;;;;4988686;28;20421;-80
2023/08/24 11:50:03;;;;;;;30.53;3.60;;;32.40;1.00;;;;;;4972816;28;20454;-79
2023/08/24 11:52:29;;;;;;;28.70;3.20;;;32.40;1.00;;;;;;4987390;28;20519;-79
2023/08/24 11:54:59;;;;;;;27.67;2.90;;;32.30;1.00;;;;;;4991566;28;20551;-79
2023/08/24 11:57:27;;;;;;;27.03;2.90;;;32.40;1.00;;;;;;4974957;28;20480;-79
2023/08/24 11:59:57;;;;;;;27.20;2.60;;;32.40;1.00;;;;;;4991827;28;20394;-79
2023/08/24 12:02:28;;;;;;;28.70;3.27;;;32.50;1.00;;;;;;4978376;28;22783;-80
2023/08/24 12:04:58;;;;;;;29.87;3.43;;;32.50;1.00;;;;;;4983652;28;20881;-79
2023/08/24 12:07:27;;;;;;;33.77;3.60;;;32.50;1.00;;;;;;4989501;28;20507;-78
2023/08/24 12:09:54;;;;;;;38.67;3.40;;;32.30;1.00;;;;;;5003688;28;20452;-78
2023/08/24 12:12:33;;;;;;;34.50;3.20;;;32.40;1.00;;;;;;4991217;28;20433;-79
2023/08/24 12:14:59;;;;;;;28.60;3.13;;;32.50;1.00;;;;;;4989035;28;20473;-79
2023/08/24 12:17:43;;;;;;;26.23;3.00;;;32.60;1.00;;;;;;4983889;28;21354;-78
2023/08/24 12:20:22;;;;;;;34.43;4.80;;;32.50;1.00;;;;;;4998534;28;20265;-78
2023/08/24 12:22:55;;;;;;;34.83;4.03;;;32.60;1.00;;;;;;5009420;28;20468;-78
2023/08/24 12:25:45;;;;;;;35.83;5.13;;;32.60;1.00;;;;;;5026067;28;20453;-79
2023/08/24 12:28:10;;;;;;;29.43;3.30;;;32.70;1.00;;;;;;5033279;28;20423;-78
2023/08/24 12:30:57;;;;;;;30.50;3.23;;;33.00;1.00;;;;;;5022319;28;20419;-78
2023/08/24 12:33:27;;;;;;;28.90;3.20;;;33.00;1.00;;;;;;5022731;28;20173;-79
2023/08/24 12:36:00;;;;;;;27.30;3.07;;;33.10;1.00;;;;;;5027560;28;20434;-78
2023/08/24 12:38:27;;;;;;;31.33;3.07;;;33.10;1.00;;;;;;5022236;28;20827;-78
2023/08/24 12:41:15;;;;;;;34.47;3.67;;;33.20;1.00;;;;;;5019683;28;20915;-79
2023/08/24 12:43:40;;;;;;;38.20;6.97;;;33.20;1.00;;;;;;5032722;28;21125;-79
2023/08/24 12:46:09;;;;;;;31.70;3.70;;;33.30;1.00;;;;;;5028585;28;20411;-78
2023/08/24 12:48:35;;;;;;;36.20;3.43;;;33.40;1.00;;;;;;5034543;28;20714;-81
2023/08/24 12:51:09;;;;;;;28.57;3.37;;;33.40;1.00;;;;;;5036605;28;20411;-81
2023/08/24 12:53:45;;;;;;;39.70;2.93;;;33.50;1.00;;;;;;5024180;28;20182;-81
2023/08/24 12:56:21;;;;;;;27.90;3.00;;;33.60;1.00;;;;;;5035906;28;20418;-83
2023/08/24 12:59:09;;;;;;;30.67;3.00;;;33.50;1.00;;;;;;5035029;28;20476;-82
2023/08/24 13:01:39;;;;;;;32.73;3.13;;;33.30;1.00;;;;;;5016441;28;20770;-81
2023/08/24 13:04:09;;;;;;;26.80;2.93;;;33.40;1.00;;;;;;5018018;28;20856;-81
2023/08/24 13:06:39;;;;;;;29.70;2.90;;;33.40;1.00;;;;;;5022665;28;20408;-81
2023/08/24 13:09:09;;;;;;;28.30;3.07;;;33.40;1.00;;;;;;5016344;28;20408;-81
2023/08/24 13:11:51;;;;;;;30.03;3.30;;;33.40;1.00;;;;;;5016336;28;20436;-81
2023/08/24 13:14:21;;;;;;;25.80;2.97;;;33.50;1.00;;;;;;5023669;28;20447;-81
2023/08/24 13:17:00;;;;;;;27.57;3.10;;;33.60;1.00;;;;;;5021971;28;20427;-82
2023/08/24 13:19:27;;;;;;;30.33;3.17;;;33.60;1.00;;;;;;5036117;28;20398;-81
2023/08/24 13:22:09;;;;;;;31.00;3.10;;;33.60;1.00;;;;;;5017322;28;20424;-81
2023/08/24 13:24:51;;;;;;;31.87;3.30;;;33.50;1.00;;;;;;5020170;28;20423;-83
2023/08/24 13:27:16;;;;;;;28.73;3.97;;;33.20;1.00;;;;;;5019107;28;20900;-82
2023/08/24 13:30:14;;;;;;;28.70;2.80;;;33.20;1.00;;;;;;5024067;28;20423;-83
2023/08/24 13:32:40;;;;;;;33.60;3.47;;;33.10;1.00;;;;;;5030289;28;20176;-80
2023/08/24 13:35:26;;;;;;;30.83;3.03;;;32.90;1.00;;;;;;5015785;28;20462;-79
2023/08/24 13:37:52;;;;;;;27.90;3.20;;;32.80;1.00;;;;;;5017559;28;20173;-79
2023/08/24 13:40:18;;;;;;;28.67;3.13;;;32.70;1.00;;;;;;5026392;28;20435;-79
2023/08/24 13:42:51;;;;;;;27.47;3.27;;;32.60;1.00;;;;;;5031086;28;20267;-80
2023/08/24 13:45:21;;;;;;;31.83;3.43;;;32.60;1.00;;;;;;5025379;28;20180;-80
2023/08/24 13:47:46;;;;;;;30.33;2.93;;;32.60;1.00;;;;;;5032360;28;20438;-80
2023/08/24 13:50:12;;;;;;;30.00;3.57;;;32.60;1.00;;;;;;5033842;28;20934;-80
2023/08/24 13:52:51;;;;;;;28.40;3.27;;;32.60;1.00;;;;;;5035435;28;20165;-80
2023/08/24 13:55:21;;;;;;;28.77;3.30;;;32.60;1.00;;;;;;5023371;28;20631;-80
2023/08/24 13:57:51;;;;;;;27.27;3.20;;;32.60;1.00;;;;;;5031236;28;21115;-79